createdAt,value
2017-11-20T00:01:45.068Z,1.58
2017-11-20T00:04:12.810Z,1.58
2017-11-20T00:06:40.543Z,1.69
2017-11-20T00:09:08.244Z,1.50
2017-11-20T00:11:36.000Z,1.42
2017-11-20T00:14:03.695Z,1.45
2017-11-20T00:16:31.469Z,1.48
2017-11-20T00:18:59.169Z,1.43
2017-11-20T00:21:26.895Z,1.53
2017-11-20T00:23:54.574Z,1.47
2017-11-20T00:26:22.337Z,1.48
2017-11-20T00:28:50.088Z,1.48
2017-11-20T00:31:17.866Z,1.48
2017-11-20T00:33:46.345Z,1.42
2017-11-20T00:36:14.031Z,1.54
2017-11-20T00:38:41.708Z,1.46
2017-11-20T00:41:09.427Z,1.41
2017-11-20T00:43:37.100Z,1.44
2017-11-20T00:46:04.827Z,1.64
2017-11-20T00:48:32.568Z,1.43
2017-11-20T00:51:00.314Z,1.32
2017-11-20T00:53:28.014Z,1.35
2017-11-20T00:55:55.763Z,1.38
2017-11-20T00:58:23.478Z,1.41
2017-11-20T01:00:51.246Z,1.64
2017-11-20T01:03:18.991Z,1.51
2017-11-20T01:05:46.795Z,1.34
2017-11-20T01:08:14.490Z,1.42
2017-11-20T01:10:42.243Z,1.42
2017-11-20T01:13:09.946Z,1.48
2017-11-20T01:15:37.697Z,1.49
2017-11-20T01:18:05.408Z,1.46
2017-11-20T01:20:33.065Z,1.44
2017-11-20T01:23:00.736Z,1.28
2017-11-20T01:25:28.454Z,1.42
2017-11-20T01:27:56.145Z,1.43
2017-11-20T01:30:23.833Z,1.51
2017-11-20T01:32:51.562Z,1.60
2017-11-20T01:35:19.323Z,1.66
2017-11-20T01:37:47.011Z,1.51
2017-11-20T01:40:14.870Z,1.43
2017-11-20T01:42:42.564Z,1.49
2017-11-20T01:45:10.253Z,1.53
2017-11-20T01:47:37.999Z,1.49
2017-11-20T01:50:05.702Z,1.55
2017-11-20T01:52:33.432Z,1.52
2017-11-20T01:55:01.172Z,1.48
2017-11-20T01:57:28.851Z,1.48
2017-11-20T01:59:56.557Z,1.53
2017-11-20T02:02:25.375Z,1.44
2017-11-20T02:04:53.100Z,1.39
2017-11-20T02:07:20.819Z,1.57
2017-11-20T02:09:48.571Z,1.44
2017-11-20T02:12:16.276Z,1.58
2017-11-20T02:14:44.034Z,1.54
2017-11-20T02:17:11.783Z,1.56
2017-11-20T02:19:39.557Z,1.58
2017-11-20T02:22:07.288Z,1.76
2017-11-20T02:24:35.002Z,1.60
2017-11-20T02:27:02.793Z,1.51
2017-11-20T02:29:30.565Z,1.50
2017-11-20T02:31:58.346Z,1.61
2017-11-20T02:34:26.077Z,1.56
2017-11-20T02:36:53.882Z,1.58
2017-11-20T02:39:21.590Z,1.52
2017-11-20T02:41:49.381Z,1.53
2017-11-20T02:44:17.176Z,1.48
2017-11-20T02:46:44.964Z,1.52
2017-11-20T02:49:12.817Z,1.55
2017-11-20T02:51:40.571Z,1.53
2017-11-20T02:54:08.335Z,1.53
2017-11-20T02:56:36.115Z,1.54
2017-11-20T02:59:03.859Z,1.53
2017-11-20T03:01:31.634Z,1.57
2017-11-20T03:03:59.346Z,1.58
2017-11-20T03:06:27.064Z,1.59
2017-11-20T03:08:54.812Z,1.61
2017-11-20T03:11:22.565Z,1.56
2017-11-20T03:13:50.291Z,1.56
2017-11-20T03:16:18.014Z,1.48
2017-11-20T03:18:45.774Z,1.62
2017-11-20T03:21:13.512Z,1.52
2017-11-20T03:23:41.269Z,1.70
2017-11-20T03:26:09.125Z,1.65
2017-11-20T03:28:36.844Z,1.64
2017-11-20T03:31:04.602Z,1.51
2017-11-20T03:33:32.380Z,1.53
2017-11-20T03:36:00.058Z,1.54
2017-11-20T03:38:27.833Z,1.56
2017-11-20T03:40:55.606Z,1.42
2017-11-20T03:43:23.507Z,1.46
2017-11-20T03:45:51.317Z,1.38
2017-11-20T03:48:19.013Z,1.37
2017-11-20T03:50:46.779Z,1.37
2017-11-20T03:53:14.483Z,1.42
2017-11-20T03:55:42.250Z,1.39
2017-11-20T03:58:09.935Z,1.44
2017-11-20T04:00:37.617Z,1.48
2017-11-20T04:03:05.332Z,1.44
2017-11-20T04:05:33.072Z,1.35
2017-11-20T04:08:00.806Z,1.40
2017-11-20T04:10:28.606Z,1.48
2017-11-20T04:12:56.327Z,1.50
2017-11-20T04:15:24.091Z,1.60
2017-11-20T04:17:52.782Z,1.63
2017-11-20T04:20:20.522Z,1.53
2017-11-20T04:22:48.229Z,1.62
2017-11-20T04:25:15.972Z,1.61
2017-11-20T04:27:43.672Z,1.62
2017-11-20T04:30:12.106Z,1.50
2017-11-20T04:32:40.097Z,1.57
2017-11-20T04:35:07.811Z,1.52
2017-11-20T04:37:35.587Z,1.58
2017-11-20T04:40:03.440Z,1.59
2017-11-20T04:42:31.326Z,1.63
2017-11-20T04:44:59.069Z,1.57
2017-11-20T04:47:27.038Z,1.55
2017-11-20T04:49:55.524Z,1.65
2017-11-20T04:52:23.233Z,1.69
2017-11-20T04:54:50.908Z,1.72
2017-11-20T04:57:18.649Z,1.66
2017-11-20T04:59:46.375Z,1.69
2017-11-20T05:02:14.136Z,1.55
2017-11-20T05:04:41.994Z,1.62
2017-11-20T05:07:09.729Z,1.62
2017-11-20T05:09:37.425Z,1.65
2017-11-20T05:12:05.160Z,1.66
2017-11-20T05:14:32.837Z,1.63
2017-11-20T05:17:00.569Z,1.53
2017-11-20T05:19:28.290Z,1.67
2017-11-20T05:21:55.965Z,1.69
2017-11-20T05:24:23.769Z,1.60
2017-11-20T05:26:51.455Z,1.68
2017-11-20T05:29:20.431Z,1.55
2017-11-20T05:31:48.102Z,1.54
2017-11-20T05:34:15.854Z,1.58
2017-11-20T05:36:43.518Z,1.55
2017-11-20T05:39:11.209Z,1.62
2017-11-20T05:41:38.919Z,1.59
2017-11-20T05:44:06.836Z,1.64
2017-11-20T05:46:34.538Z,1.61
2017-11-20T05:49:02.257Z,1.62
2017-11-20T05:51:29.975Z,1.68
2017-11-20T05:53:57.643Z,1.80
2017-11-20T05:56:25.405Z,1.63
2017-11-20T05:58:53.113Z,1.68
2017-11-20T06:01:20.846Z,1.64
2017-11-20T06:03:48.558Z,1.57
2017-11-20T06:06:16.307Z,1.61
2017-11-20T06:08:43.977Z,1.58
2017-11-20T06:11:11.812Z,1.59
2017-11-20T06:13:39.497Z,1.64
2017-11-20T06:16:07.241Z,1.71
2017-11-20T06:18:34.974Z,1.64
2017-11-20T06:21:03.465Z,1.67
2017-11-20T06:23:31.271Z,1.60
2017-11-20T06:25:58.983Z,1.69
2017-11-20T06:28:26.726Z,1.72
2017-11-20T06:30:54.594Z,1.70
2017-11-20T06:33:22.277Z,1.59
2017-11-20T06:35:49.981Z,1.50
2017-11-20T06:38:17.719Z,1.62
2017-11-20T06:40:45.394Z,1.62
2017-11-20T06:43:13.140Z,1.62
2017-11-20T06:45:40.895Z,1.69
2017-11-20T06:48:08.641Z,1.71
2017-11-20T06:50:36.394Z,1.73
2017-11-20T06:53:04.135Z,1.72
2017-11-20T06:55:31.844Z,1.77
2017-11-20T06:57:59.552Z,1.84
2017-11-20T07:00:27.270Z,1.83
2017-11-20T07:02:54.963Z,1.55
2017-11-20T07:05:22.676Z,1.61
2017-11-20T07:07:50.347Z,1.75
2017-11-20T07:10:18.076Z,1.83
2017-11-20T07:12:45.781Z,1.74
2017-11-20T07:15:13.523Z,1.75
2017-11-20T07:17:41.207Z,1.71
2017-11-20T07:20:08.944Z,1.77
2017-11-20T07:22:36.663Z,1.69
2017-11-20T07:28:03.645Z,1.88
2017-11-20T07:30:43.032Z,1.80
2017-11-20T07:33:10.742Z,1.84
2017-11-20T07:35:42.352Z,1.82
2017-11-20T07:38:17.955Z,1.95
2017-11-20T07:40:57.381Z,1.88
2017-11-20T07:43:25.064Z,1.85
2017-11-20T07:45:52.842Z,2.06
2017-11-20T07:48:20.592Z,2.01
2017-11-20T07:50:48.494Z,1.89
2017-11-20T07:53:16.231Z,1.96
2017-11-20T07:55:43.997Z,1.96
2017-11-20T07:58:11.659Z,2.01
2017-11-20T08:00:39.432Z,2.20
2017-11-20T08:03:07.182Z,2.05
2017-11-20T08:05:34.917Z,2.05
2017-11-20T08:08:02.710Z,2.18
2017-11-20T08:10:30.472Z,2.24
2017-11-20T08:12:58.190Z,2.34
2017-11-20T08:15:25.866Z,2.27
2017-11-20T08:17:53.706Z,2.50
2017-11-20T08:20:21.406Z,2.62
2017-11-20T08:22:49.113Z,2.62
2017-11-20T08:25:18.092Z,2.63
2017-11-20T08:27:45.975Z,2.65
2017-11-20T08:30:13.918Z,2.62
2017-11-20T08:32:41.725Z,2.68
2017-11-20T08:35:10.466Z,2.80
2017-11-20T08:37:38.385Z,2.82
2017-11-20T08:40:06.155Z,2.87
2017-11-20T08:42:33.856Z,2.75
2017-11-20T08:45:01.858Z,2.82
2017-11-20T08:47:29.675Z,3.01
2017-11-20T08:49:57.448Z,2.94
2017-11-20T08:52:25.213Z,2.78
2017-11-20T08:54:53.021Z,2.91
2017-11-20T08:57:20.753Z,2.83
2017-11-20T08:59:49.406Z,2.88
2017-11-20T09:02:17.150Z,2.85
2017-11-20T09:04:44.891Z,3.22
2017-11-20T09:07:12.634Z,3.28
2017-11-20T09:09:40.461Z,3.37
2017-11-20T09:12:08.327Z,3.46
2017-11-20T09:14:36.021Z,3.45
2017-11-20T09:17:03.768Z,3.62
2017-11-20T09:19:31.579Z,3.66
2017-11-20T09:21:59.328Z,3.72
2017-11-20T09:24:27.140Z,3.68
2017-11-20T09:26:54.897Z,3.81
2017-11-20T09:29:22.660Z,3.69
2017-11-20T09:31:50.522Z,3.68
2017-11-20T09:34:18.260Z,3.91
2017-11-20T09:36:45.995Z,3.84
2017-11-20T09:39:13.733Z,3.73
2017-11-20T09:41:41.464Z,3.76
2017-11-20T09:44:09.281Z,3.92
2017-11-20T09:46:37.089Z,3.88
2017-11-20T09:49:04.957Z,4.04
2017-11-20T09:51:32.753Z,3.93
2017-11-20T09:54:00.570Z,3.94
2017-11-20T09:56:28.372Z,4.06
2017-11-20T09:58:56.293Z,4.04
2017-11-20T10:01:24.036Z,4.05
2017-11-20T10:03:51.815Z,3.92
2017-11-20T10:06:19.734Z,4.52
2017-11-20T10:08:47.467Z,4.72
2017-11-20T10:11:15.224Z,5.00
2017-11-20T10:13:43.022Z,4.91
2017-11-20T10:16:10.800Z,4.75
2017-11-20T10:18:38.633Z,4.41
2017-11-20T10:21:06.667Z,4.48
2017-11-20T10:23:34.511Z,4.86
2017-11-20T10:26:02.245Z,5.54
2017-11-20T10:28:30.017Z,5.68
2017-11-20T10:30:57.871Z,5.78
2017-11-20T10:33:25.654Z,5.59
2017-11-20T10:35:53.478Z,5.40
2017-11-20T10:38:21.234Z,5.95
2017-11-20T10:40:49.009Z,5.74
2017-11-20T10:43:16.772Z,5.58
2017-11-20T10:45:44.583Z,4.95
2017-11-20T10:48:12.409Z,5.08
2017-11-20T10:50:40.350Z,5.50
2017-11-20T10:53:08.213Z,5.39
2017-11-20T10:55:35.954Z,5.65
2017-11-20T10:58:03.766Z,5.37
2017-11-20T11:00:31.545Z,5.62
2017-11-20T11:02:59.332Z,5.36
2017-11-20T11:05:27.104Z,5.46
2017-11-20T11:07:54.844Z,5.43
2017-11-20T11:10:22.591Z,5.36
2017-11-20T11:12:50.527Z,5.65
2017-11-20T11:15:18.276Z,5.21
2017-11-20T11:17:46.033Z,5.35
2017-11-20T11:20:13.838Z,5.21
2017-11-20T11:22:41.634Z,5.14
2017-11-20T11:25:09.420Z,5.69
2017-11-20T11:27:37.213Z,5.16
2017-11-20T11:30:04.988Z,4.82
2017-11-20T11:32:32.843Z,5.20
2017-11-20T11:35:01.633Z,5.74
2017-11-20T11:37:29.435Z,5.54
2017-11-20T11:39:57.178Z,5.44
2017-11-20T11:42:25.015Z,5.71
2017-11-20T11:44:53.207Z,6.13
2017-11-20T11:47:21.042Z,6.31
2017-11-20T11:49:49.264Z,6.40
2017-11-20T11:52:17.044Z,6.36
2017-11-20T11:54:44.773Z,6.23
2017-11-20T11:57:12.502Z,6.61
2017-11-20T11:59:40.344Z,6.69
2017-11-20T12:02:08.934Z,6.55
2017-11-20T12:04:36.746Z,6.62
2017-11-20T12:07:06.903Z,6.15
2017-11-20T12:09:34.692Z,6.21
2017-11-20T12:12:02.458Z,6.75
2017-11-20T12:14:30.269Z,6.39
2017-11-20T12:16:58.104Z,5.97
2017-11-20T12:19:25.827Z,5.69
2017-11-20T12:21:53.684Z,5.30
2017-11-20T12:24:21.519Z,5.52
2017-11-20T12:26:49.839Z,6.03
2017-11-20T12:29:17.648Z,5.97
2017-11-20T12:31:45.489Z,5.32
2017-11-20T12:34:13.235Z,5.56
2017-11-20T12:36:41.002Z,5.57
2017-11-20T12:39:08.848Z,5.48
2017-11-20T12:41:36.661Z,5.26
2017-11-20T12:44:04.428Z,5.37
2017-11-20T12:46:32.398Z,5.36
2017-11-20T12:49:00.207Z,5.25
2017-11-20T12:51:28.039Z,5.13
2017-11-20T12:53:56.215Z,5.04
2017-11-20T12:56:23.991Z,5.20
2017-11-20T12:58:51.809Z,5.30
2017-11-20T13:01:19.631Z,5.20
2017-11-20T13:03:47.450Z,5.28
2017-11-20T13:06:15.249Z,5.04
2017-11-20T13:08:43.001Z,5.03
2017-11-20T13:11:11.709Z,4.65
2017-11-20T13:13:39.532Z,4.73
2017-11-20T13:16:07.379Z,4.72
2017-11-20T13:18:35.156Z,4.65
2017-11-20T13:21:03.026Z,4.53
2017-11-20T13:23:30.814Z,5.01
2017-11-20T13:25:59.806Z,4.80
2017-11-20T13:28:27.686Z,4.92
2017-11-20T13:30:55.514Z,4.77
2017-11-20T13:33:23.280Z,4.72
2017-11-20T13:35:52.108Z,4.89
2017-11-20T13:38:19.872Z,4.95
2017-11-20T13:40:47.727Z,4.83
2017-11-20T13:43:15.578Z,4.96
2017-11-20T13:45:43.348Z,4.72
2017-11-20T13:48:11.121Z,4.62
2017-11-20T13:50:39.836Z,4.67
2017-11-20T13:53:07.656Z,4.73
2017-11-20T13:55:35.513Z,4.63
2017-11-20T13:58:03.390Z,4.57
2017-11-20T14:00:31.220Z,4.84
2017-11-20T14:02:59.059Z,4.64
2017-11-20T14:05:27.004Z,4.48
2017-11-20T14:07:54.967Z,4.42
2017-11-20T14:10:22.836Z,4.52
2017-11-20T14:12:50.642Z,4.50
2017-11-20T14:15:18.558Z,4.42
2017-11-20T14:17:46.473Z,4.31
2017-11-20T14:20:14.389Z,4.12
2017-11-20T14:22:42.216Z,4.18
2017-11-20T14:25:10.007Z,4.33
2017-11-20T14:27:37.810Z,4.18
2017-11-20T14:30:05.616Z,4.06
2017-11-20T14:32:33.459Z,4.01
2017-11-20T14:35:01.326Z,3.96
2017-11-20T14:37:29.235Z,3.87
2017-11-20T14:39:57.102Z,3.75
2017-11-20T14:42:24.875Z,3.91
2017-11-20T14:44:52.686Z,3.60
2017-11-20T14:47:20.586Z,3.41
2017-11-20T14:49:50.259Z,3.37
2017-11-20T14:52:18.838Z,3.52
2017-11-20T14:54:47.948Z,3.43
2017-11-20T14:57:15.764Z,3.40
2017-11-20T14:59:43.654Z,3.22
2017-11-20T15:02:11.529Z,3.38
2017-11-20T15:04:39.427Z,3.19
2017-11-20T15:07:08.067Z,3.37
2017-11-20T15:09:35.956Z,3.56
2017-11-20T15:12:03.886Z,3.58
2017-11-20T15:14:31.712Z,3.49
2017-11-20T15:16:59.591Z,3.46
2017-11-20T15:19:27.505Z,3.39
2017-11-20T15:21:55.395Z,3.45
2017-11-20T15:24:23.434Z,3.44
2017-11-20T15:26:51.359Z,3.36
2017-11-20T15:29:19.222Z,3.33
2017-11-20T15:31:46.978Z,3.33
2017-11-20T15:34:14.889Z,3.38
2017-11-20T15:36:42.803Z,3.23
2017-11-20T15:39:10.642Z,3.29
2017-11-20T15:41:38.670Z,3.15
2017-11-20T15:44:06.450Z,3.11
2017-11-20T15:46:34.195Z,3.01
2017-11-20T15:49:02.031Z,2.82
2017-11-20T15:51:29.760Z,3.00
2017-11-20T15:53:57.541Z,2.92
2017-11-20T15:56:25.208Z,2.88
2017-11-20T15:58:53.047Z,3.02
2017-11-20T16:01:20.829Z,3.10
2017-11-20T16:03:48.962Z,2.95
2017-11-20T16:06:16.767Z,2.99
2017-11-20T16:08:44.583Z,3.22
2017-11-20T16:11:12.304Z,3.03
2017-11-20T16:13:40.118Z,2.99
2017-11-20T16:16:07.894Z,2.91
2017-11-20T16:18:35.758Z,2.87
2017-11-20T16:21:03.578Z,2.94
2017-11-20T16:23:31.384Z,2.81
2017-11-20T16:25:59.373Z,2.79
2017-11-20T16:28:27.219Z,2.78
2017-11-20T16:30:55.143Z,2.86
2017-11-20T16:33:23.916Z,2.88
2017-11-20T16:35:53.705Z,2.66
2017-11-20T16:38:21.495Z,2.62
2017-11-20T16:40:49.206Z,2.86
2017-11-20T16:43:17.148Z,2.84
2017-11-20T16:45:44.971Z,2.82
2017-11-20T16:48:12.758Z,2.81
2017-11-20T16:50:40.507Z,2.82
2017-11-20T16:53:09.802Z,2.92
2017-11-20T16:55:38.572Z,3.03
2017-11-20T17:01:08.609Z,2.82
2017-11-20T17:03:38.553Z,3.01
2017-11-20T17:06:07.996Z,2.93
2017-11-20T17:08:36.347Z,2.97
2017-11-20T17:11:04.746Z,2.94
2017-11-20T17:13:34.767Z,2.91
2017-11-20T17:16:03.484Z,2.95
2017-11-20T17:18:33.472Z,2.98
2017-11-20T17:21:01.851Z,2.97
2017-11-20T17:23:29.976Z,3.00
2017-11-20T17:25:58.449Z,3.04
2017-11-20T17:28:26.710Z,3.14
2017-11-20T17:30:54.660Z,3.08
2017-11-20T17:33:22.506Z,3.13
2017-11-20T17:35:50.392Z,3.10
2017-11-20T17:38:18.432Z,3.03
2017-11-20T17:40:46.504Z,3.07
2017-11-20T17:43:14.286Z,3.03
2017-11-20T17:45:42.710Z,3.07
2017-11-20T17:48:10.562Z,2.98
2017-11-20T17:50:38.386Z,3.00
2017-11-20T17:53:06.153Z,2.96
2017-11-20T17:55:34.056Z,2.86
2017-11-20T17:58:01.961Z,2.90
2017-11-20T18:00:29.769Z,2.82
2017-11-20T18:02:57.612Z,2.88
2017-11-20T18:05:25.433Z,2.87
2017-11-20T18:07:53.271Z,2.87
2017-11-20T18:10:21.024Z,2.84
2017-11-20T18:12:48.814Z,2.83
2017-11-20T18:15:16.714Z,2.79
2017-11-20T18:17:44.554Z,2.79
2017-11-20T18:20:12.504Z,2.82
2017-11-20T18:22:40.878Z,2.79
2017-11-20T18:25:08.740Z,2.72
2017-11-20T18:27:36.626Z,2.66
2017-11-20T18:30:04.672Z,2.50
2017-11-20T18:32:32.570Z,2.55
2017-11-20T18:35:01.367Z,2.51
2017-11-20T18:37:29.271Z,2.47
2017-11-20T18:39:58.173Z,2.45
2017-11-20T18:42:25.953Z,2.47
2017-11-20T18:44:53.771Z,2.46
2017-11-20T18:47:22.400Z,2.48
2017-11-20T18:49:50.182Z,2.58
2017-11-20T18:52:18.185Z,2.65
2017-11-20T18:54:46.496Z,2.65
2017-11-20T18:57:14.690Z,2.54
2017-11-20T18:59:42.705Z,2.49
2017-11-20T19:02:23.274Z,2.50
2017-11-20T19:05:00.956Z,2.49
2017-11-20T19:07:40.616Z,2.49
2017-11-20T19:10:08.542Z,2.43
2017-11-20T19:12:36.543Z,2.46
2017-11-20T19:15:04.842Z,2.67
2017-11-20T19:17:32.758Z,2.57
2017-11-20T19:20:00.602Z,2.46
2017-11-20T19:22:30.441Z,2.42
2017-11-20T19:24:58.354Z,2.32
2017-11-20T19:27:26.196Z,2.30
2017-11-20T19:29:54.096Z,2.35
2017-11-20T19:32:22.301Z,2.28
2017-11-20T19:34:50.656Z,2.22
2017-11-20T19:37:18.760Z,2.21
2017-11-20T19:39:48.132Z,2.29
2017-11-20T19:42:18.290Z,2.27
2017-11-20T19:44:46.862Z,2.32
2017-11-20T19:47:14.748Z,2.30
2017-11-20T19:49:42.824Z,2.29
2017-11-20T19:52:12.139Z,2.27
2017-11-20T19:54:41.097Z,2.23
2017-11-20T19:57:09.095Z,2.24
2017-11-20T19:59:37.641Z,2.28
2017-11-20T20:02:05.646Z,2.28
2017-11-20T20:04:34.825Z,2.25
2017-11-20T20:07:02.608Z,2.28
2017-11-20T20:09:30.563Z,2.31
2017-11-20T20:11:59.216Z,2.30
2017-11-20T20:14:32.908Z,2.19
2017-11-20T20:17:10.775Z,2.21
2017-11-20T20:19:39.832Z,2.16
2017-11-20T20:22:08.627Z,2.17
2017-11-20T20:24:36.819Z,2.16
2017-11-20T20:27:04.691Z,2.16
2017-11-20T20:29:32.423Z,2.13
2017-11-20T20:32:00.419Z,2.13
2017-11-20T20:34:29.486Z,2.16
2017-11-20T20:36:59.108Z,2.28
2017-11-20T20:39:27.268Z,2.16
2017-11-20T20:41:55.461Z,2.20
2017-11-20T20:44:23.701Z,2.23
2017-11-20T20:46:52.359Z,2.29
2017-11-20T20:49:20.154Z,2.28
2017-11-20T20:51:47.904Z,2.36
2017-11-20T20:54:15.681Z,2.30
2017-11-20T20:56:43.416Z,2.28
2017-11-20T20:59:11.170Z,2.17
2017-11-20T21:01:39.104Z,2.24
2017-11-20T21:04:08.321Z,2.28
2017-11-20T21:06:41.617Z,2.36
2017-11-20T21:09:09.477Z,2.39
2017-11-20T21:11:42.759Z,2.35
2017-11-20T21:14:10.992Z,2.35
2017-11-20T21:16:38.771Z,2.26
2017-11-20T21:19:06.497Z,2.27
2017-11-20T21:21:34.269Z,2.26
2017-11-20T21:24:02.306Z,2.26
2017-11-20T21:26:30.113Z,2.14
2017-11-20T21:28:57.914Z,2.16
2017-11-20T21:31:26.597Z,2.22
2017-11-20T21:33:54.368Z,2.21
2017-11-20T21:36:22.188Z,2.28
2017-11-20T21:38:49.936Z,2.27
2017-11-20T21:41:17.779Z,2.34
2017-11-20T21:43:46.161Z,2.20
2017-11-20T21:46:13.901Z,2.14
2017-11-20T21:48:42.369Z,2.18
2017-11-20T21:51:10.110Z,2.12
2017-11-20T21:53:37.901Z,2.09
2017-11-20T21:56:05.649Z,2.12
2017-11-20T21:58:33.494Z,2.08
2017-11-20T22:01:01.397Z,2.10
2017-11-20T22:03:29.386Z,2.11
2017-11-20T22:05:57.220Z,2.08
2017-11-20T22:08:25.095Z,2.08
2017-11-20T22:10:52.826Z,2.18
2017-11-20T22:13:29.134Z,2.13
2017-11-20T22:15:56.985Z,2.07
2017-11-20T22:18:24.776Z,2.05
2017-11-20T22:20:52.484Z,2.05
2017-11-20T22:23:20.390Z,2.11
2017-11-20T22:25:48.120Z,2.14
2017-11-20T22:28:15.909Z,2.15
2017-11-20T22:30:43.703Z,2.10
2017-11-20T22:33:11.542Z,2.14
2017-11-20T22:35:39.280Z,2.12
2017-11-20T22:38:07.851Z,2.11
2017-11-20T22:40:36.674Z,2.03
2017-11-20T22:43:04.380Z,2.13
2017-11-20T22:45:32.145Z,2.14
2017-11-20T22:47:59.940Z,2.15
2017-11-20T22:50:28.517Z,2.09
2017-11-20T22:52:56.236Z,2.00
2017-11-20T22:55:24.042Z,2.04
2017-11-20T22:57:51.738Z,2.02
2017-11-20T23:00:19.469Z,2.04
2017-11-20T23:02:47.172Z,2.03
2017-11-20T23:05:14.920Z,2.04
2017-11-20T23:07:42.671Z,2.02
2017-11-20T23:10:10.417Z,2.07
2017-11-20T23:12:38.186Z,2.13
2017-11-20T23:15:05.882Z,1.94
2017-11-20T23:17:33.641Z,1.90
2017-11-20T23:20:01.402Z,2.05
2017-11-20T23:22:29.123Z,2.03
2017-11-20T23:24:56.881Z,2.08
2017-11-20T23:27:24.779Z,2.10
2017-11-20T23:29:52.477Z,2.15
2017-11-20T23:32:20.225Z,2.19
2017-11-20T23:34:48.187Z,2.14
2017-11-20T23:37:15.906Z,2.24
2017-11-20T23:39:43.831Z,2.24
2017-11-20T23:42:11.576Z,2.16
2017-11-20T23:44:39.279Z,2.20
2017-11-20T23:47:07.029Z,2.19
2017-11-20T23:49:34.897Z,2.25
2017-11-20T23:52:02.711Z,2.24
2017-11-20T23:54:37.185Z,2.28
2017-11-20T23:57:04.970Z,2.35
2017-11-20T23:59:32.739Z,2.28
